Time;durP1;ratioP1;P1;durP2;ratioP2;P2;SDS_P1;SDS_P2;PMS_P1;PMS_P2;Temp;Humidity;BMP_temperature;BMP_pressure;BME280_temperature;BME280_humidity;BME280_pressure;Samples;Min_cycle;Max_cycle;Signal;HPM_P1;HPM_P2
2023/09/21 00:00:34;;;;;;;5.72;1.52;;;17.80;99.90;;;;;;5032245;28;20049;-82
2023/09/21 00:02:59;;;;;;;4.22;1.70;;;17.80;99.90;;;;;;5017676;28;20107;-82
2023/09/21 00:05:31;;;;;;;6.30;1.90;;;17.80;99.90;;;;;;5034126;28;20049;-82
2023/09/21 00:07:58;;;;;;;6.72;1.42;;;17.80;99.90;;;;;;5046267;28;20479;-82
2023/09/21 00:10:31;;;;;;;4.45;1.88;;;17.80;99.90;;;;;;5043447;28;20033;-82
2023/09/21 00:12:58;;;;;;;5.07;1.43;;;17.80;99.90;;;;;;5042653;28;20120;-82
2023/09/21 00:15:30;;;;;;;5.70;1.73;;;17.80;99.90;;;;;;5035469;28;20323;-82
2023/09/21 00:17:57;;;;;;;7.50;1.70;;;17.80;99.90;;;;;;5037019;28;20061;-82
2023/09/21 00:20:35;;;;;;;4.18;1.50;;;17.80;99.90;;;;;;5066977;28;20084;-82
2023/09/21 00:23:08;;;;;;;5.60;1.98;;;17.70;99.90;;;;;;5076717;28;20065;-82
2023/09/21 00:25:36;;;;;;;4.43;1.35;;;17.70;99.90;;;;;;5053708;28;20045;-82
2023/09/21 00:28:12;;;;;;;5.90;1.58;;;17.70;99.90;;;;;;5054036;28;20518;-79
2023/09/21 00:30:40;;;;;;;5.22;1.27;;;17.70;99.90;;;;;;5087095;28;20044;-79
2023/09/21 00:33:09;;;;;;;5.30;1.92;;;17.70;99.90;;;;;;5053158;28;20076;-79
2023/09/21 00:35:39;;;;;;;4.80;2.00;;;17.70;99.90;;;;;;5036615;28;20052;-78
2023/09/21 00:38:10;;;;;;;4.22;1.60;;;17.70;99.90;;;;;;5053412;28;20052;-79
2023/09/21 00:40:38;;;;;;;4.13;1.70;;;17.70;99.90;;;;;;5051122;28;20496;-79
2023/09/21 00:43:06;;;;;;;4.53;1.98;;;17.70;99.90;;;;;;5040053;28;20088;-78
2023/09/21 00:45:36;;;;;;;6.18;1.83;;;17.70;99.90;;;;;;5036565;28;20564;-79
2023/09/21 00:48:03;;;;;;;4.63;1.98;;;17.70;99.90;;;;;;5041873;28;20124;-78
2023/09/21 00:50:30;;;;;;;4.63;1.67;;;17.70;99.90;;;;;;5060874;28;20045;-78
2023/09/21 00:52:56;;;;;;;5.97;1.73;;;17.70;99.90;;;;;;5037345;28;20041;-79
2023/09/21 00:55:31;;;;;;;5.35;1.92;;;17.70;99.90;;;;;;5033967;28;20413;-79
2023/09/21 00:58:07;;;;;;;;;;;17.70;99.90;;;;;;5052692;28;20052;-78
2023/09/21 01:00:34;;;;;;;4.72;1.77;;;17.70;99.90;;;;;;5045017;28;19920;-79
2023/09/21 01:03:09;;;;;;;4.72;1.83;;;17.70;99.90;;;;;;5033022;28;20049;-79
2023/09/21 01:05:36;;;;;;;6.65;2.03;;;17.60;99.90;;;;;;5035727;28;20230;-78
2023/09/21 01:08:05;;;;;;;3.53;1.58;;;17.70;99.90;;;;;;5024266;28;20072;-78
2023/09/21 01:10:33;;;;;;;4.05;1.63;;;17.70;99.90;;;;;;5040082;28;20049;-79
2023/09/21 01:12:59;;;;;;;9.10;2.78;;;17.70;99.90;;;;;;5026439;28;20064;-79
2023/09/21 01:15:24;;;;;;;6.35;1.83;;;17.70;99.90;;;;;;5052293;28;20073;-79
2023/09/21 01:17:50;;;;;;;6.88;1.77;;;17.70;99.90;;;;;;5052918;28;20056;-79
2023/09/21 01:20:27;;;;;;;7.70;2.08;;;17.70;99.90;;;;;;5035738;28;20049;-79
2023/09/21 01:23:11;;;;;;;5.70;2.00;;;17.70;99.90;;;;;;5069161;28;20053;-78
2023/09/21 01:25:39;;;;;;;7.10;1.73;;;17.70;99.90;;;;;;5066497;28;20049;-79
2023/09/21 01:28:06;;;;;;;7.78;1.75;;;17.70;99.90;;;;;;5065873;28;20111;-79
2023/09/21 01:30:32;;;;;;;5.70;1.95;;;17.70;99.90;;;;;;5065649;28;20128;-79
2023/09/21 01:33:03;;;;;;;5.15;1.67;;;17.70;99.90;;;;;;5065401;28;20136;-79
2023/09/21 01:35:31;;;;;;;4.75;1.60;;;17.70;99.90;;;;;;5065852;28;20592;-78
2023/09/21 01:37:57;;;;;;;6.75;2.13;;;17.80;99.90;;;;;;5049532;28;20057;-79
2023/09/21 01:40:23;;;;;;;4.43;1.83;;;17.80;99.90;;;;;;5066712;28;20045;-79
2023/09/21 01:42:50;;;;;;;5.40;2.17;;;17.80;99.90;;;;;;5065786;28;20046;-77
2023/09/21 01:45:19;;;;;;;4.72;1.65;;;17.70;99.90;;;;;;5067851;28;20095;-78
2023/09/21 01:47:45;;;;;;;4.05;1.65;;;17.70;99.90;;;;;;5031010;28;20048;-79
2023/09/21 01:50:12;;;;;;;4.72;2.03;;;17.70;99.90;;;;;;5032183;28;20050;-79
2023/09/21 01:52:38;;;;;;;5.63;1.60;;;17.70;99.90;;;;;;5042423;28;20055;-78
2023/09/21 01:55:11;;;;;;;6.55;1.80;;;17.80;99.90;;;;;;5042655;28;20045;-79
2023/09/21 01:57:43;;;;;;;5.60;2.30;;;17.80;99.90;;;;;;5017672;28;20045;-78
2023/09/21 02:00:21;;;;;;;4.32;1.80;;;17.80;99.90;;;;;;5052514;28;20500;-78
2023/09/21 02:02:51;;;;;;;5.97;2.53;;;17.80;99.90;;;;;;5040975;28;20053;-78
2023/09/21 02:05:17;;;;;;;4.63;2.15;;;17.90;99.90;;;;;;5043752;28;20045;-78
2023/09/21 02:07:43;;;;;;;4.57;1.73;;;17.90;99.90;;;;;;5048916;28;20048;-78
2023/09/21 02:10:10;;;;;;;4.15;1.75;;;17.90;99.90;;;;;;5043513;28;20052;-78
2023/09/21 02:12:38;;;;;;;6.25;1.95;;;17.90;99.90;;;;;;5045012;28;20045;-79
2023/09/21 02:15:11;;;;;;;6.10;1.73;;;17.90;99.90;;;;;;5077078;28;20079;-79
2023/09/21 02:17:40;;;;;;;5.40;1.90;;;17.90;99.90;;;;;;5050975;28;20068;-79
2023/09/21 02:20:13;;;;;;;6.25;1.70;;;17.90;99.90;;;;;;5065275;28;20091;-79
2023/09/21 02:22:47;;;;;;;4.18;1.77;;;17.90;99.90;;;;;;5031573;28;20115;-78
2023/09/21 02:25:17;;;;;;;4.43;1.50;;;17.90;99.90;;;;;;5031880;28;20132;-79
2023/09/21 02:27:46;;;;;;;6.75;2.08;;;17.90;99.90;;;;;;5031551;28;20104;-79
2023/09/21 02:30:16;;;;;;;5.05;1.80;;;17.80;99.90;;;;;;5031871;28;20125;-79
2023/09/21 02:32:43;;;;;;;5.40;1.98;;;17.80;99.90;;;;;;5031373;28;20095;-79
2023/09/21 02:35:16;;;;;;;4.45;1.67;;;17.80;99.90;;;;;;5031249;28;20049;-79
2023/09/21 02:37:46;;;;;;;4.18;1.85;;;17.90;99.90;;;;;;5031301;28;20049;-78
2023/09/21 02:40:17;;;;;;;6.78;1.95;;;17.90;99.90;;;;;;5031437;28;20049;-79
2023/09/21 02:42:44;;;;;;;4.57;1.67;;;17.90;99.90;;;;;;5031882;28;20041;-79
2023/09/21 02:45:11;;;;;;;3.60;1.67;;;17.90;99.90;;;;;;5031423;28;20053;-79
2023/09/21 02:47:43;;;;;;;6.50;1.83;;;17.80;99.90;;;;;;5024994;28;20048;-79
2023/09/21 02:50:27;;;;;;;6.07;1.88;;;17.90;99.90;;;;;;5049843;28;20523;-79
2023/09/21 02:52:54;;;;;;;4.60;1.60;;;17.80;99.90;;;;;;5041831;28;20044;-79
2023/09/21 02:55:26;;;;;;;3.47;1.60;;;17.80;99.90;;;;;;5031064;28;20041;-79
2023/09/21 02:58:13;;;;;;;4.22;1.42;;;17.80;99.90;;;;;;5047189;28;20064;-80
2023/09/21 03:00:45;;;;;;;6.85;2.10;;;17.90;99.90;;;;;;5047241;28;20051;-79
2023/09/21 03:03:13;;;;;;;3.95;1.65;;;17.90;99.90;;;;;;5030606;28;20088;-79
2023/09/21 03:05:39;;;;;;;4.45;1.45;;;17.80;99.90;;;;;;5030866;28;20466;-77
2023/09/21 03:08:13;;;;;;;4.88;1.70;;;17.80;99.90;;;;;;5032526;28;20051;-79
2023/09/21 03:10:45;;;;;;;3.92;1.70;;;17.80;99.90;;;;;;5021023;28;20049;-78
2023/09/21 03:13:17;;;;;;;6.00;1.60;;;17.80;99.90;;;;;;5030781;28;20057;-79
2023/09/21 03:15:44;;;;;;;4.22;1.50;;;17.80;99.90;;;;;;5030958;28;20057;-79
2023/09/21 03:18:10;;;;;;;3.22;1.60;;;17.80;99.90;;;;;;5030556;28;20096;-79
2023/09/21 03:20:37;;;;;;;5.72;1.88;;;17.70;99.90;;;;;;5031318;28;20132;-79
2023/09/21 03:23:09;;;;;;;5.78;1.70;;;17.80;99.90;;;;;;5064344;28;20519;-78
2023/09/21 03:25:43;;;;;;;4.35;1.60;;;17.80;99.90;;;;;;5034483;28;20049;-79
2023/09/21 03:28:12;;;;;;;8.35;1.60;;;17.70;99.90;;;;;;5031002;28;20046;-78
2023/09/21 03:30:39;;;;;;;4.55;1.92;;;17.70;99.90;;;;;;5050605;28;20504;-79
2023/09/21 03:33:05;;;;;;;3.63;1.55;;;17.60;99.90;;;;;;5051331;28;20061;-78
2023/09/21 03:35:31;;;;;;;3.50;1.63;;;17.70;99.90;;;;;;5052686;28;20045;-79
2023/09/21 03:37:57;;;;;;;7.57;1.55;;;17.70;99.90;;;;;;5045971;28;20207;-79
2023/09/21 03:40:25;;;;;;;3.42;1.50;;;17.60;99.90;;;;;;5044495;28;20056;-78
2023/09/21 03:42:55;;;;;;;3.65;1.30;;;17.60;99.90;;;;;;5055499;28;20459;-79
2023/09/21 03:45:25;;;;;;;6.32;1.70;;;17.60;99.90;;;;;;5048972;28;20520;-78
2023/09/21 03:47:52;;;;;;;5.43;1.98;;;17.60;99.90;;;;;;5046514;28;20050;-79
2023/09/21 03:50:18;;;;;;;4.20;1.60;;;17.60;99.90;;;;;;5049767;28;20048;-79
2023/09/21 03:52:47;;;;;;;5.05;1.77;;;17.60;99.90;;;;;;5035138;28;20041;-79
2023/09/21 03:55:16;;;;;;;5.07;1.50;;;17.60;99.90;;;;;;5029351;28;20037;-78
2023/09/21 03:57:46;;;;;;;4.70;1.70;;;17.60;99.90;;;;;;5049283;28;20083;-79
2023/09/21 04:00:30;;;;;;;7.28;1.58;;;17.60;99.90;;;;;;5035994;28;20057;-78
2023/09/21 04:03:00;;;;;;;4.35;1.42;;;17.60;99.90;;;;;;5054419;28;20045;-79
2023/09/21 04:05:26;;;;;;;4.20;1.70;;;17.60;99.90;;;;;;5054082;28;20056;-78
2023/09/21 04:07:58;;;;;;;6.68;1.55;;;17.60;99.90;;;;;;5044193;28;20049;-79
2023/09/21 04:10:25;;;;;;;5.00;1.90;;;17.60;99.90;;;;;;5051650;28;20049;-78
2023/09/21 04:12:55;;;;;;;5.55;2.67;;;17.60;99.90;;;;;;5049447;28;20057;-79
2023/09/21 04:15:26;;;;;;;4.82;1.65;;;17.60;99.90;;;;;;5032978;28;20038;-79
2023/09/21 04:17:52;;;;;;;4.75;1.55;;;17.60;99.90;;;;;;5034431;28;20083;-78
2023/09/21 04:20:19;;;;;;;3.95;1.40;;;17.60;99.90;;;;;;5047127;28;20037;-78
2023/09/21 04:22:50;;;;;;;4.15;1.60;;;17.60;99.90;;;;;;5054035;28;20045;-79
2023/09/21 04:25:16;;;;;;;5.22;1.40;;;17.60;99.90;;;;;;5053836;28;20049;-79
2023/09/21 04:27:47;;;;;;;6.75;1.55;;;17.60;99.90;;;;;;5046232;28;20547;-79
2023/09/21 04:30:16;;;;;;;3.85;1.80;;;17.60;99.90;;;;;;5034313;28;20087;-79
2023/09/21 04:32:47;;;;;;;3.58;1.48;;;17.60;99.90;;;;;;5034680;28;20049;-79
2023/09/21 04:35:18;;;;;;;3.92;1.60;;;17.60;99.90;;;;;;5033779;28;20049;-79
2023/09/21 04:37:45;;;;;;;3.38;1.50;;;17.60;99.90;;;;;;5033211;28;20094;-78
2023/09/21 04:40:14;;;;;;;3.83;1.33;;;17.60;99.90;;;;;;5033759;28;20049;-78
2023/09/21 04:42:47;;;;;;;4.68;1.80;;;17.60;99.90;;;;;;5017015;28;20045;-79
2023/09/21 04:45:18;;;;;;;5.57;1.73;;;17.60;99.90;;;;;;5033885;28;20056;-79
2023/09/21 04:47:49;;;;;;;4.38;1.58;;;17.60;99.90;;;;;;5033313;28;20128;-78
2023/09/21 04:50:18;;;;;;;5.13;1.65;;;17.60;99.90;;;;;;5047251;28;20034;-79
2023/09/21 04:52:51;;;;;;;4.20;1.50;;;17.50;99.90;;;;;;5035573;28;20041;-78
2023/09/21 04:55:18;;;;;;;5.10;1.50;;;17.50;99.90;;;;;;5042672;28;20049;-78
2023/09/21 04:57:45;;;;;;;4.10;1.50;;;17.50;99.90;;;;;;5042888;28;20340;-79
2023/09/21 05:00:13;;;;;;;6.10;1.60;;;17.50;99.90;;;;;;5048347;28;20060;-78
2023/09/21 05:02:39;;;;;;;4.65;1.67;;;17.50;99.90;;;;;;5034390;28;20364;-78
2023/09/21 05:05:06;;;;;;;6.63;2.10;;;17.50;99.90;;;;;;5039385;28;20049;-79
2023/09/21 05:07:35;;;;;;;4.25;1.73;;;17.50;99.90;;;;;;5037249;28;20049;-79
2023/09/21 05:10:02;;;;;;;5.55;1.60;;;17.50;99.90;;;;;;5048201;28;20098;-79
2023/09/21 05:12:30;;;;;;;3.97;1.60;;;17.50;99.90;;;;;;5051222;28;20392;-80
2023/09/21 05:14:57;;;;;;;3.55;1.50;;;17.40;99.90;;;;;;5043279;28;20053;-80
2023/09/21 05:17:23;;;;;;;6.15;1.52;;;17.50;99.90;;;;;;5016630;28;20505;-78
2023/09/21 05:19:49;;;;;;;4.18;1.50;;;17.50;99.90;;;;;;5035833;28;20045;-80
2023/09/21 05:22:18;;;;;;;5.45;1.55;;;17.50;99.90;;;;;;5049986;28;20059;-79
2023/09/21 05:24:43;;;;;;;6.22;2.20;;;17.50;99.90;;;;;;5048930;28;20120;-77
2023/09/21 05:27:11;;;;;;;4.72;1.77;;;17.50;99.90;;;;;;5053713;28;20052;-78
2023/09/21 05:29:37;;;;;;;3.65;1.70;;;17.50;99.90;;;;;;5077343;28;20077;-79
2023/09/21 05:32:05;;;;;;;3.45;1.50;;;17.50;99.90;;;;;;5052593;28;20084;-79
2023/09/21 05:34:32;;;;;;;3.95;1.63;;;17.60;99.90;;;;;;5051716;28;20061;-80
2023/09/21 05:37:01;;;;;;;4.40;1.58;;;17.60;99.90;;;;;;5047531;28;20128;-80
2023/09/21 05:39:31;;;;;;;6.97;1.50;;;17.60;99.90;;;;;;5047495;28;20048;-79
2023/09/21 05:42:00;;;;;;;3.22;1.30;;;17.70;99.90;;;;;;5051881;28;20083;-80
2023/09/21 05:44:25;;;;;;;4.53;1.20;;;17.70;99.90;;;;;;5040682;28;20041;-80
2023/09/21 05:46:54;;;;;;;5.68;1.60;;;17.70;99.90;;;;;;5041600;28;20099;-81
2023/09/21 05:49:23;;;;;;;3.35;1.25;;;17.80;99.90;;;;;;5030589;28;21522;-80
2023/09/21 05:51:56;;;;;;;3.78;1.48;;;17.80;99.90;;;;;;5036611;28;20045;-80
2023/09/21 05:54:23;;;;;;;5.00;1.53;;;17.80;99.90;;;;;;5041038;28;20492;-81
2023/09/21 05:56:53;;;;;;;4.00;1.60;;;17.80;99.90;;;;;;5042555;28;20069;-80
2023/09/21 05:59:22;;;;;;;5.60;1.65;;;17.90;99.90;;;;;;5045454;28;20051;-80
2023/09/21 06:01:48;;;;;;;4.93;1.70;;;17.90;99.90;;;;;;5044848;28;20049;-80
2023/09/21 06:04:17;;;;;;;3.88;1.70;;;18.00;99.90;;;;;;5047567;28;20052;-80
2023/09/21 06:06:46;;;;;;;5.25;1.33;;;18.10;99.90;;;;;;5048780;28;20086;-81
2023/09/21 06:09:18;;;;;;;3.30;1.38;;;18.10;99.90;;;;;;5048024;28;20056;-80
2023/09/21 06:11:48;;;;;;;4.72;1.67;;;18.10;99.90;;;;;;5038727;28;20094;-81
2023/09/21 06:14:15;;;;;;;4.80;1.50;;;18.20;99.90;;;;;;5050267;28;20036;-81
2023/09/21 06:16:42;;;;;;;3.30;1.40;;;18.20;99.90;;;;;;5044139;28;20091;-81
2023/09/21 06:19:09;;;;;;;8.20;1.80;;;18.20;99.90;;;;;;5052223;28;20049;-80
2023/09/21 06:21:36;;;;;;;5.68;1.60;;;18.20;99.90;;;;;;5049775;28;20053;-81
2023/09/21 06:24:10;;;;;;;3.75;1.20;;;18.20;99.90;;;;;;5034104;28;20045;-82
2023/09/21 06:26:38;;;;;;;;;;;18.20;99.90;;;;;;5043710;28;20443;-81
2023/09/21 06:29:04;;;;;;;2.95;1.48;;;18.30;99.90;;;;;;5040954;28;19928;-78
2023/09/21 06:31:30;;;;;;;5.43;1.50;;;18.30;99.90;;;;;;5045769;28;20057;-78
2023/09/21 06:33:59;;;;;;;5.30;1.73;;;18.30;99.90;;;;;;5050757;28;20067;-82
2023/09/21 06:36:28;;;;;;;4.75;1.55;;;18.30;99.90;;;;;;5049934;28;20103;-77
2023/09/21 06:38:57;;;;;;;4.47;1.50;;;18.40;99.90;;;;;;5070734;28;20068;-77
2023/09/21 06:41:24;;;;;;;4.25;1.40;;;18.40;99.90;;;;;;5030172;28;20049;-78
2023/09/21 06:43:50;;;;;;;4.32;1.48;;;18.40;99.90;;;;;;5035902;28;20056;-85
2023/09/21 06:46:16;;;;;;;4.47;1.40;;;18.40;99.90;;;;;;5040249;28;20911;-83
2023/09/21 06:48:42;;;;;;;3.40;1.67;;;18.40;99.90;;;;;;5048659;28;20049;-82
2023/09/21 06:51:09;;;;;;;4.10;1.58;;;18.40;99.90;;;;;;5043786;28;20587;-82
2023/09/21 06:53:38;;;;;;;4.65;1.70;;;18.40;99.90;;;;;;5051151;28;20053;-80
2023/09/21 06:56:05;;;;;;;4.45;1.60;;;18.40;99.90;;;;;;5034357;28;20534;-80
2023/09/21 06:58:31;;;;;;;4.55;1.80;;;18.30;99.90;;;;;;5051157;28;20053;-79
2023/09/21 07:01:04;;;;;;;6.60;2.05;;;18.30;99.90;;;;;;5050798;28;20041;-79
2023/09/21 07:03:32;;;;;;;3.58;1.63;;;18.30;99.90;;;;;;5035167;28;20049;-79
2023/09/21 07:05:58;;;;;;;3.90;1.90;;;18.30;99.90;;;;;;5051316;28;20059;-79
2023/09/21 07:08:27;;;;;;;6.57;2.38;;;18.20;99.90;;;;;;5052362;28;20089;-79
2023/09/21 07:10:52;;;;;;;5.40;1.48;;;18.20;99.90;;;;;;5049763;28;20100;-79
2023/09/21 07:13:20;;;;;;;4.05;1.50;;;18.20;99.90;;;;;;5051693;28;20100;-79
2023/09/21 07:15:47;;;;;;;5.57;1.90;;;18.20;99.90;;;;;;5051376;28;20049;-80
2023/09/21 07:18:13;;;;;;;3.90;1.50;;;18.20;99.90;;;;;;5051359;28;20102;-80
2023/09/21 07:20:39;;;;;;;4.90;2.10;;;18.20;99.90;;;;;;5072422;28;20132;-81
2023/09/21 07:23:04;;;;;;;5.40;1.90;;;18.20;99.90;;;;;;5033987;28;20060;-80
2023/09/21 07:25:30;;;;;;;3.47;1.80;;;18.10;99.90;;;;;;5050551;28;20079;-79
2023/09/21 07:27:59;;;;;;;4.38;1.65;;;18.10;99.90;;;;;;5049208;28;20060;-80
2023/09/21 07:30:32;;;;;;;6.65;2.15;;;18.10;99.90;;;;;;5044218;28;20053;-80
2023/09/21 07:32:59;;;;;;;5.38;1.85;;;18.10;99.90;;;;;;5023333;28;20489;-81
2023/09/21 07:35:24;;;;;;;5.63;2.17;;;18.10;99.90;;;;;;5042571;28;20120;-81
2023/09/21 07:37:51;;;;;;;4.38;1.85;;;18.10;99.90;;;;;;5041286;28;20195;-81
2023/09/21 07:40:21;;;;;;;5.97;2.10;;;18.10;99.90;;;;;;5022343;28;20057;-80
2023/09/21 07:42:49;;;;;;;6.32;2.95;;;18.00;99.90;;;;;;5076245;28;20061;-80
2023/09/21 07:45:17;;;;;;;7.20;2.10;;;18.10;99.90;;;;;;5044772;28;20052;-80
2023/09/21 07:47:45;;;;;;;8.60;1.98;;;18.10;99.90;;;;;;5044165;28;20396;-81
2023/09/21 07:50:11;;;;;;;6.45;1.77;;;18.10;99.90;;;;;;5044904;28;20040;-79
2023/09/21 07:52:37;;;;;;;4.10;1.75;;;18.00;99.90;;;;;;5018899;28;20060;-81
2023/09/21 07:55:04;;;;;;;5.65;2.10;;;18.10;99.90;;;;;;5040053;28;20041;-81
2023/09/21 07:57:34;;;;;;;5.07;2.10;;;18.10;99.90;;;;;;5045494;28;20056;-82
2023/09/21 08:00:00;;;;;;;6.32;1.95;;;18.10;99.90;;;;;;5044964;28;20049;-80
2023/09/21 08:02:27;;;;;;;4.65;1.92;;;18.10;99.90;;;;;;5043218;28;20233;-80
2023/09/21 08:04:54;;;;;;;4.78;2.00;;;18.10;99.90;;;;;;5044076;28;20052;-80
2023/09/21 08:07:26;;;;;;;6.07;2.42;;;18.20;99.90;;;;;;5038302;28;20076;-80
2023/09/21 08:09:56;;;;;;;5.07;1.80;;;18.20;99.90;;;;;;5019030;28;20084;-81
2023/09/21 08:12:24;;;;;;;7.78;2.03;;;18.20;99.90;;;;;;5041379;28;20045;-80
2023/09/21 08:14:51;;;;;;;4.28;1.80;;;18.20;99.90;;;;;;5042372;28;20053;-80
2023/09/21 08:17:20;;;;;;;6.90;2.33;;;18.20;99.90;;;;;;5045320;28;20112;-80
2023/09/21 08:19:46;;;;;;;5.43;1.90;;;18.20;99.90;;;;;;5041757;28;20124;-78
2023/09/21 08:22:13;;;;;;;5.93;2.00;;;18.20;99.90;;;;;;5047067;28;20557;-80
2023/09/21 08:24:41;;;;;;;4.47;2.17;;;18.30;99.90;;;;;;5050354;28;20084;-78
2023/09/21 08:27:16;;;;;;;6.03;2.10;;;18.20;99.90;;;;;;5046818;28;20045;-80
2023/09/21 08:29:42;;;;;;;4.20;1.60;;;18.20;99.90;;;;;;5041684;28;20052;-80
2023/09/21 08:32:09;;;;;;;6.43;2.58;;;18.20;99.90;;;;;;5035602;28;20045;-79
2023/09/21 08:34:35;;;;;;;5.28;2.35;;;18.20;99.90;;;;;;5032909;28;20050;-79
2023/09/21 08:37:00;;;;;;;4.97;2.38;;;18.20;99.90;;;;;;5032992;28;20551;-80
2023/09/21 08:39:26;;;;;;;5.55;2.20;;;18.20;99.90;;;;;;5041252;28;20057;-79
2023/09/21 08:41:52;;;;;;;5.50;2.50;;;18.20;99.90;;;;;;5080239;28;20049;-80
2023/09/21 08:44:18;;;;;;;6.38;2.95;;;18.10;99.90;;;;;;5032814;28;20057;-80
2023/09/21 08:46:45;;;;;;;5.97;2.20;;;18.10;99.90;;;;;;5067080;28;20041;-79
2023/09/21 08:49:13;;;;;;;8.57;2.53;;;18.10;99.90;;;;;;5066238;28;20604;-79
2023/09/21 08:51:42;;;;;;;7.93;2.70;;;18.10;99.90;;;;;;5033240;28;20088;-79
2023/09/21 08:54:09;;;;;;;5.63;2.63;;;18.10;99.90;;;;;;5034534;28;20090;-79
2023/09/21 08:56:38;;;;;;;6.88;2.53;;;18.00;99.90;;;;;;5034005;28;20064;-79
2023/09/21 08:59:06;;;;;;;5.00;2.70;;;18.00;99.90;;;;;;5033324;28;20053;-79
2023/09/21 09:01:37;;;;;;;5.88;2.47;;;18.00;99.90;;;;;;5044822;28;20507;-79
2023/09/21 09:04:04;;;;;;;5.53;2.38;;;18.00;99.90;;;;;;5052827;28;20049;-79
2023/09/21 09:06:30;;;;;;;8.00;2.72;;;18.00;99.90;;;;;;5053242;28;20048;-79
2023/09/21 09:08:56;;;;;;;6.20;3.03;;;17.90;99.90;;;;;;5053227;28;20378;-79
2023/09/21 09:11:36;;;;;;;6.38;2.40;;;17.90;99.90;;;;;;5052950;28;20053;-79
2023/09/21 09:14:02;;;;;;;6.13;2.85;;;17.80;99.90;;;;;;5052931;28;20559;-79
2023/09/21 09:16:30;;;;;;;6.15;2.90;;;17.80;99.90;;;;;;5052509;28;20103;-79
2023/09/21 09:18:58;;;;;;;6.68;3.38;;;17.80;99.90;;;;;;5053067;28;20041;-80
2023/09/21 09:21:27;;;;;;;7.53;3.20;;;17.70;99.90;;;;;;5053046;28;20088;-79
2023/09/21 09:23:56;;;;;;;6.57;3.15;;;17.70;99.90;;;;;;5052528;28;20059;-79
2023/09/21 09:26:22;;;;;;;5.50;3.15;;;17.80;99.90;;;;;;5036354;28;20144;-79
2023/09/21 09:28:49;;;;;;;8.52;2.80;;;17.70;99.90;;;;;;5035752;28;20576;-80
2023/09/21 09:31:18;;;;;;;6.25;2.92;;;17.70;99.90;;;;;;5052431;28;20049;-79
2023/09/21 09:33:50;;;;;;;5.75;3.03;;;17.60;99.90;;;;;;5051680;28;20063;-79
2023/09/21 09:36:15;;;;;;;4.93;2.88;;;17.60;99.90;;;;;;5036864;28;20047;-78
2023/09/21 09:38:42;;;;;;;5.75;3.15;;;17.60;99.90;;;;;;5036643;28;20136;-78
2023/09/21 09:41:12;;;;;;;7.03;3.03;;;17.60;99.90;;;;;;5053052;28;20092;-78
2023/09/21 09:43:40;;;;;;;7.95;3.17;;;17.60;99.90;;;;;;5052701;28;20047;-79
2023/09/21 09:46:08;;;;;;;6.95;3.63;;;17.50;99.90;;;;;;5036658;28;20060;-78
2023/09/21 09:48:35;;;;;;;13.38;3.85;;;17.50;99.90;;;;;;5051949;28;20508;-78
2023/09/21 09:51:06;;;;;;;4.90;2.55;;;17.50;99.90;;;;;;5052542;28;20053;-78
2023/09/21 09:53:34;;;;;;;6.03;2.83;;;17.50;99.90;;;;;;5052508;28;20045;-78
2023/09/21 09:56:08;;;;;;;6.70;3.40;;;17.50;99.90;;;;;;5051583;28;20045;-77
2023/09/21 09:58:41;;;;;;;6.28;3.67;;;17.50;99.90;;;;;;5052801;28;20400;-78
2023/09/21 10:01:12;;;;;;;5.15;2.58;;;17.40;99.90;;;;;;5052722;28;20049;-79
2023/09/21 10:03:39;;;;;;;3.85;1.52;;;17.40;99.90;;;;;;5052170;28;20174;-79
2023/09/21 10:06:09;;;;;;;4.18;1.45;;;17.30;99.90;;;;;;5052492;28;20040;-78
2023/09/21 10:08:39;;;;;;;3.42;1.27;;;17.20;99.90;;;;;;5050870;28;20056;-78
2023/09/21 10:11:07;;;;;;;4.30;1.10;;;17.20;99.90;;;;;;5035292;28;20369;-78
2023/09/21 10:13:35;;;;;;;2.95;1.00;;;17.20;99.90;;;;;;5052348;28;20488;-77
2023/09/21 10:16:05;;;;;;;3.00;1.15;;;17.10;99.90;;;;;;5052236;28;20128;-78
2023/09/21 10:18:36;;;;;;;2.15;0.88;;;17.10;99.90;;;;;;5051947;28;20094;-78
2023/09/21 10:21:29;;;;;;;3.25;0.93;;;17.00;99.90;;;;;;5052321;28;20045;-78
2023/09/21 10:24:06;;;;;;;3.97;1.05;;;17.00;99.90;;;;;;5051514;28;20048;-77
2023/09/21 10:26:33;;;;;;;3.25;0.80;;;17.00;99.90;;;;;;5074910;28;20048;-78
2023/09/21 10:29:04;;;;;;;2.03;0.73;;;17.00;99.90;;;;;;5052196;28;20050;-78
2023/09/21 10:31:36;;;;;;;2.83;0.75;;;16.90;99.90;;;;;;5051756;28;20060;-78
2023/09/21 10:34:02;;;;;;;2.10;0.57;;;16.90;99.90;;;;;;5050784;28;20057;-79
2023/09/21 10:36:29;;;;;;;2.05;0.70;;;16.90;99.90;;;;;;5050532;28;20068;-78
2023/09/21 10:39:09;;;;;;;2.20;0.70;;;16.90;99.90;;;;;;5084643;28;20049;-78
2023/09/21 10:41:36;;;;;;;1.88;0.80;;;16.80;99.90;;;;;;5051133;28;20057;-78
2023/09/21 10:44:06;;;;;;;3.17;0.80;;;16.80;99.90;;;;;;5050578;28;20048;-78
2023/09/21 10:46:34;;;;;;;3.10;0.60;;;16.80;99.90;;;;;;5051271;28;20048;-78
2023/09/21 10:49:06;;;;;;;2.35;0.63;;;16.70;99.90;;;;;;5051387;28;20524;-78
2023/09/21 10:51:39;;;;;;;2.15;0.70;;;16.70;99.90;;;;;;5050827;28;20045;-78
2023/09/21 10:54:06;;;;;;;1.70;0.60;;;16.70;99.90;;;;;;5051202;28;20438;-78
2023/09/21 10:56:33;;;;;;;2.17;0.82;;;16.70;99.90;;;;;;5051131;28;20052;-78
2023/09/21 10:58:59;;;;;;;2.08;0.82;;;16.80;99.90;;;;;;5049540;28;20520;-78
2023/09/21 11:01:26;;;;;;;3.42;0.70;;;16.80;99.90;;;;;;5050244;28;20056;-78
2023/09/21 11:03:52;;;;;;;3.75;0.60;;;16.80;99.90;;;;;;5050684;28;20413;-78
2023/09/21 11:06:20;;;;;;;1.15;0.63;;;16.90;99.90;;;;;;5032194;28;20052;-78
2023/09/21 11:08:49;;;;;;;2.67;0.68;;;16.90;99.90;;;;;;5064642;28;20132;-78
2023/09/21 11:11:16;;;;;;;1.48;0.52;;;16.90;99.90;;;;;;5030783;28;20042;-78
2023/09/21 11:13:42;;;;;;;2.47;0.80;;;16.90;99.90;;;;;;5030804;28;20137;-78
2023/09/21 11:16:09;;;;;;;2.85;0.70;;;17.00;99.90;;;;;;5032121;28;20132;-78
2023/09/21 11:18:38;;;;;;;1.60;0.60;;;16.90;99.90;;;;;;5031112;28;20107;-78
2023/09/21 11:21:04;;;;;;;2.28;0.70;;;16.90;99.90;;;;;;5042591;28;20051;-78
2023/09/21 11:23:33;;;;;;;1.55;0.80;;;16.90;99.90;;;;;;5050692;28;20040;-78
2023/09/21 11:26:00;;;;;;;2.17;0.75;;;16.90;99.90;;;;;;5050743;28;20412;-78
2023/09/21 11:28:32;;;;;;;1.92;0.60;;;16.90;99.90;;;;;;5050627;28;20120;-78
2023/09/21 11:30:58;;;;;;;1.52;0.50;;;16.90;99.90;;;;;;5050326;28;20041;-78
2023/09/21 11:33:27;;;;;;;1.50;0.60;;;17.00;99.90;;;;;;5051135;28;20057;-77
2023/09/21 11:35:53;;;;;;;2.42;0.70;;;17.00;99.90;;;;;;5050085;28;20078;-77
2023/09/21 11:38:20;;;;;;;2.95;0.73;;;16.90;99.90;;;;;;5052081;28;20181;-78
2023/09/21 11:40:53;;;;;;;2.33;0.80;;;16.90;99.90;;;;;;5050874;28;20052;-78
2023/09/21 11:43:20;;;;;;;2.95;1.02;;;16.90;99.90;;;;;;5051182;28;20041;-78
2023/09/21 11:45:49;;;;;;;3.00;0.85;;;16.90;99.90;;;;;;5050740;28;20123;-78
2023/09/21 11:48:15;;;;;;;3.05;0.80;;;17.00;99.90;;;;;;5051315;28;20091;-78
2023/09/21 11:50:44;;;;;;;3.30;0.80;;;17.00;99.90;;;;;;5050083;28;20084;-78
2023/09/21 11:53:10;;;;;;;4.50;1.58;;;17.00;99.90;;;;;;5049774;28;20037;-77
2023/09/21 11:55:36;;;;;;;6.18;1.10;;;17.00;99.90;;;;;;5051257;28;20048;-78
2023/09/21 11:58:10;;;;;;;3.65;0.95;;;17.10;99.90;;;;;;5053992;28;20385;-78
2023/09/21 12:00:43;;;;;;;3.08;1.15;;;17.10;99.90;;;;;;5054706;28;20041;-78
2023/09/21 12:03:14;;;;;;;3.15;1.00;;;17.10;99.90;;;;;;5054953;28;20095;-77
2023/09/21 12:05:40;;;;;;;2.97;0.80;;;17.10;99.90;;;;;;5038343;28;20186;-78
2023/09/21 12:08:19;;;;;;;2.78;1.00;;;17.20;99.90;;;;;;5054762;28;20059;-78
2023/09/21 12:10:50;;;;;;;2.97;0.90;;;17.10;99.90;;;;;;5075198;28;20513;-78
2023/09/21 12:13:18;;;;;;;2.13;0.95;;;17.10;99.90;;;;;;5068149;28;20091;-78
2023/09/21 12:15:45;;;;;;;3.03;1.00;;;17.00;99.90;;;;;;5043743;28;20052;-78
2023/09/21 12:18:12;;;;;;;2.58;0.80;;;17.00;99.90;;;;;;5053967;28;20056;-78
2023/09/21 12:20:49;;;;;;;2.15;0.88;;;16.90;99.90;;;;;;5054244;28;20400;-78
2023/09/21 12:23:15;;;;;;;1.73;0.60;;;16.90;99.90;;;;;;5036266;28;20053;-78
2023/09/21 12:25:41;;;;;;;1.15;0.50;;;16.90;99.90;;;;;;5054162;28;20465;-78
2023/09/21 12:28:11;;;;;;;4.07;0.90;;;16.90;99.90;;;;;;5054483;28;20064;-78
2023/09/21 12:30:42;;;;;;;2.33;0.80;;;16.90;99.90;;;;;;5033879;28;20045;-78
2023/09/21 12:33:08;;;;;;;2.13;0.80;;;16.90;99.90;;;;;;5034200;28;20432;-78
2023/09/21 12:35:37;;;;;;;2.13;0.90;;;16.90;99.90;;;;;;5033758;28;20107;-78
2023/09/21 12:38:03;;;;;;;3.17;1.05;;;16.90;99.90;;;;;;5040342;28;20053;-79
2023/09/21 12:40:29;;;;;;;1.65;0.60;;;16.90;99.90;;;;;;5053650;28;20056;-79
2023/09/21 12:42:54;;;;;;;1.92;0.80;;;16.90;99.90;;;;;;5054113;28;20099;-80
2023/09/21 12:45:21;;;;;;;3.95;0.90;;;17.00;99.90;;;;;;5053205;28;20436;-79
2023/09/21 12:47:47;;;;;;;1.75;0.82;;;17.00;99.90;;;;;;5053326;28;20935;-79
2023/09/21 12:50:15;;;;;;;2.53;0.88;;;17.00;99.90;;;;;;5053885;28;20049;-80
2023/09/21 12:52:42;;;;;;;2.45;0.60;;;17.00;99.90;;;;;;5053542;28;20045;-80
2023/09/21 12:55:12;;;;;;;2.55;0.70;;;17.10;99.90;;;;;;5053279;28;20047;-80